createdAt,value
2022-12-18T00:02:01.513Z,94.93
2022-12-18T00:06:03.420Z,94.24
2022-12-18T00:10:07.887Z,93.97
2022-12-18T00:14:12.227Z,94.34
2022-12-18T00:18:16.062Z,94.68
2022-12-18T00:22:20.565Z,94.20
2022-12-18T00:26:25.398Z,92.18
2022-12-18T00:30:27.229Z,89.99
2022-12-18T00:34:28.763Z,90.25
2022-12-18T00:38:30.367Z,92.34
2022-12-18T00:42:33.226Z,93.39
2022-12-18T00:46:34.791Z,94.27
2022-12-18T00:50:36.348Z,94.03
2022-12-18T00:54:37.865Z,92.85
2022-12-18T00:58:40.757Z,92.29
2022-12-18T01:02:42.715Z,92.16
2022-12-18T01:06:44.386Z,93.43
2022-12-18T01:10:46.212Z,93.83
2022-12-18T01:14:49.208Z,94.37
2022-12-18T01:18:52.902Z,94.92
2022-12-18T01:22:54.399Z,94.88
2022-12-18T01:26:55.936Z,95.11
2022-12-18T01:30:58.789Z,92.95
2022-12-18T01:35:00.289Z,93.71
2022-12-18T01:39:04.019Z,91.86
2022-12-18T01:43:05.553Z,90.42
2022-12-18T01:47:21.100Z,88.72
2022-12-18T01:51:23.047Z,89.37
2022-12-18T01:55:26.594Z,89.87
2022-12-18T01:59:29.260Z,90.54
2022-12-18T02:03:32.151Z,90.26
2022-12-18T02:07:43.389Z,90.42
2022-12-18T02:11:53.933Z,91.05
2022-12-18T02:16:03.018Z,91.32
2022-12-18T02:20:14.722Z,91.88
2022-12-18T02:24:26.489Z,91.72
2022-12-18T02:28:34.417Z,90.99
2022-12-18T02:32:41.017Z,90.79
2022-12-18T02:36:45.055Z,92.31
2022-12-18T02:40:47.265Z,92.21
2022-12-18T02:44:52.065Z,92.16
2022-12-18T02:48:59.018Z,91.45
2022-12-18T02:53:11.179Z,91.53
2022-12-18T02:57:21.696Z,92.12
2022-12-18T03:01:32.367Z,92.25
2022-12-18T03:05:39.440Z,96.33
2022-12-18T03:09:47.293Z,96.02
2022-12-18T03:13:53.544Z,95.52
2022-12-18T03:18:00.569Z,96.01
2022-12-18T03:22:04.385Z,96.86
2022-12-18T03:26:10.177Z,95.79
2022-12-18T03:30:16.669Z,96.69
2022-12-18T03:34:24.268Z,96.53
2022-12-18T03:38:25.836Z,95.33
2022-12-18T03:42:32.322Z,96.03
2022-12-18T03:46:41.595Z,95.58
2022-12-18T03:50:49.659Z,95.56
2022-12-18T03:54:52.432Z,95.24
2022-12-18T03:58:56.157Z,94.81
2022-12-18T04:03:01.561Z,94.72
2022-12-18T04:07:05.643Z,94.78
2022-12-18T04:11:07.220Z,94.57
2022-12-18T04:15:09.998Z,94.06
2022-12-18T04:19:11.611Z,96.49
2022-12-18T04:23:14.459Z,94.99
2022-12-18T04:27:16.181Z,96.51
2022-12-18T04:31:17.875Z,95.96
2022-12-18T04:35:19.529Z,94.37
2022-12-18T04:39:22.760Z,92.73
2022-12-18T04:43:24.367Z,93.24
2022-12-18T04:47:25.929Z,92.91
2022-12-18T04:51:27.420Z,92.37
2022-12-18T04:55:30.274Z,93.16
2022-12-18T04:59:31.773Z,92.95
2022-12-18T05:03:33.318Z,91.87
2022-12-18T05:07:35.038Z,91.45
2022-12-18T05:11:37.889Z,92.02
2022-12-18T05:15:39.481Z,91.03
2022-12-18T05:19:41.050Z,89.76
2022-12-18T05:23:42.905Z,90.59
2022-12-18T05:27:46.923Z,90.87
2022-12-18T05:31:48.459Z,91.88
2022-12-18T05:35:51.774Z,93.47
2022-12-18T05:39:53.332Z,91.73
2022-12-18T05:43:56.246Z,91.11
2022-12-18T05:47:57.742Z,92.58
2022-12-18T05:51:59.228Z,91.96
2022-12-18T05:56:01.979Z,91.94
2022-12-18T06:00:05.838Z,92.28
2022-12-18T06:04:07.452Z,92.17
2022-12-18T06:08:09.790Z,89.84
2022-12-18T06:12:11.293Z,90.69
2022-12-18T06:16:14.276Z,91.85
2022-12-18T06:20:15.907Z,90.05
2022-12-18T06:24:18.501Z,91.84
2022-12-18T06:28:20.094Z,91.41
2022-12-18T06:32:23.637Z,91.24
2022-12-18T06:36:25.163Z,91.80
2022-12-18T06:40:26.642Z,91.38
2022-12-18T06:44:28.211Z,92.10
2022-12-18T06:48:31.775Z,91.75
2022-12-18T06:52:33.633Z,92.09
2022-12-18T06:56:35.334Z,93.23
2022-12-18T07:00:36.989Z,93.84
2022-12-18T07:04:39.854Z,93.04
2022-12-18T07:08:41.502Z,93.44
2022-12-18T07:12:43.142Z,92.94
2022-12-18T07:16:44.670Z,91.13
2022-12-18T07:20:47.751Z,91.41
2022-12-18T07:24:50.204Z,91.42
2022-12-18T07:28:56.600Z,90.75
2022-12-18T07:32:58.060Z,92.67
2022-12-18T07:37:01.053Z,92.52
2022-12-18T07:41:03.353Z,92.20
2022-12-18T07:45:08.089Z,92.44
2022-12-18T07:49:09.587Z,92.61
2022-12-18T07:53:12.549Z,93.28
2022-12-18T07:57:41.418Z,91.34
2022-12-18T08:01:35.880Z,90.93
2022-12-18T08:05:37.570Z,89.68
2022-12-18T08:09:40.519Z,90.37
2022-12-18T08:13:42.463Z,90.17
2022-12-18T08:17:44.362Z,93.44
2022-12-18T08:21:46.068Z,89.71
2022-12-18T08:25:49.089Z,91.31
2022-12-18T08:29:50.648Z,91.97
2022-12-18T08:33:53.443Z,90.16
2022-12-18T08:37:56.102Z,88.96
2022-12-18T08:41:59.201Z,89.87
2022-12-18T08:46:00.946Z,89.73
2022-12-18T08:50:02.668Z,88.14
2022-12-18T08:54:06.422Z,89.29
2022-12-18T08:58:09.633Z,88.50
2022-12-18T09:02:11.949Z,88.93
2022-12-18T09:06:15.225Z,89.16
2022-12-18T09:10:16.997Z,88.64
2022-12-18T09:14:20.652Z,86.91
2022-12-18T09:18:23.717Z,88.52
2022-12-18T09:22:25.310Z,86.70
2022-12-18T09:26:27.399Z,87.24
2022-12-18T09:30:30.357Z,86.18
2022-12-18T09:34:32.065Z,85.93
2022-12-18T09:38:34.102Z,84.62
2022-12-18T09:42:35.753Z,85.72
2022-12-18T09:46:44.857Z,85.85
2022-12-18T09:50:47.443Z,86.61
2022-12-18T09:54:54.080Z,87.36
2022-12-18T09:58:59.415Z,86.74
2022-12-18T10:03:09.804Z,87.15
2022-12-18T10:07:20.014Z,86.33
2022-12-18T10:11:32.318Z,86.08
2022-12-18T10:15:41.184Z,84.52
2022-12-18T10:19:51.104Z,85.35
2022-12-18T10:23:59.507Z,84.28
2022-12-18T10:28:09.588Z,84.08
2022-12-18T10:32:16.947Z,83.60
2022-12-18T10:36:19.808Z,83.04
2022-12-18T10:40:22.760Z,82.02
2022-12-18T10:44:28.552Z,82.61
2022-12-18T10:48:31.873Z,81.96
2022-12-18T10:52:34.955Z,80.81
2022-12-18T10:56:38.962Z,79.07
2022-12-18T11:00:42.125Z,79.99
2022-12-18T11:04:52.370Z,80.08
2022-12-18T11:09:00.764Z,78.43
2022-12-18T11:13:13.786Z,77.16
2022-12-18T11:17:27.691Z,78.03
2022-12-18T11:21:29.269Z,76.37
2022-12-18T11:25:35.394Z,76.44
2022-12-18T11:29:46.246Z,76.39
2022-12-18T11:34:26.772Z,76.48
2022-12-18T11:38:22.901Z,77.56
2022-12-18T11:42:32.997Z,76.77
2022-12-18T11:46:40.877Z,76.73
2022-12-18T11:50:51.696Z,74.87
2022-12-18T11:54:53.738Z,75.27
2022-12-18T11:59:08.019Z,76.12
2022-12-18T12:03:44.539Z,76.05
2022-12-18T12:07:56.162Z,76.40
2022-12-18T12:12:11.491Z,75.67
2022-12-18T12:16:19.344Z,75.41
2022-12-18T12:20:25.904Z,76.10
2022-12-18T12:24:38.588Z,75.59
2022-12-18T12:28:53.485Z,75.41
2022-12-18T12:33:15.296Z,76.74
2022-12-18T12:37:28.186Z,75.65
2022-12-18T12:41:33.231Z,76.11
2022-12-18T12:45:39.898Z,75.87
2022-12-18T12:49:43.685Z,74.95
2022-12-18T12:53:46.077Z,75.84
2022-12-18T12:57:56.837Z,76.20
2022-12-18T13:02:05.410Z,75.98
2022-12-18T13:06:15.553Z,76.40
2022-12-18T13:10:36.183Z,76.22
2022-12-18T13:14:40.197Z,76.85
2022-12-18T13:18:50.499Z,76.48
2022-12-18T13:22:53.406Z,76.21
2022-12-18T13:26:55.151Z,76.04
2022-12-18T13:30:57.734Z,76.14
2022-12-18T13:35:39.759Z,74.98
2022-12-18T13:39:43.128Z,75.34
2022-12-18T13:43:47.773Z,74.77
2022-12-18T13:47:50.574Z,75.09
2022-12-18T13:51:53.832Z,75.21
2022-12-18T13:55:57.199Z,75.69
2022-12-18T14:00:00.156Z,75.52
2022-12-18T14:04:12.733Z,76.46
2022-12-18T14:08:16.254Z,77.09
2022-12-18T14:12:22.583Z,76.03
2022-12-18T14:16:24.251Z,78.14
2022-12-18T14:20:26.804Z,77.57
2022-12-18T14:24:28.513Z,78.33
2022-12-18T14:28:31.435Z,78.46
2022-12-18T14:32:32.952Z,78.85
2022-12-18T14:36:35.513Z,79.72
2022-12-18T14:40:37.136Z,79.32
2022-12-18T14:45:05.207Z,80.07
2022-12-18T14:49:04.637Z,79.58
2022-12-18T14:53:18.522Z,80.44
2022-12-18T14:57:24.186Z,79.38
2022-12-18T15:01:30.295Z,80.07
2022-12-18T15:05:32.635Z,81.15
2022-12-18T15:09:34.143Z,80.32
2022-12-18T15:13:35.664Z,80.67
2022-12-18T15:17:39.121Z,80.17
2022-12-18T15:21:43.906Z,82.54
2022-12-18T15:25:47.042Z,80.53
2022-12-18T15:30:16.518Z,82.33
2022-12-18T15:34:23.228Z,81.07
2022-12-18T15:38:24.763Z,82.37
2022-12-18T15:42:26.338Z,81.80
2022-12-18T15:46:27.903Z,82.60
2022-12-18T15:50:30.910Z,81.60
2022-12-18T15:54:32.773Z,81.94
2022-12-18T15:58:34.331Z,81.73
2022-12-18T16:02:36.049Z,81.34
2022-12-18T16:07:05.314Z,81.84
2022-12-18T16:11:01.066Z,81.26
2022-12-18T16:15:02.617Z,81.56
2022-12-18T16:19:04.116Z,81.11
2022-12-18T16:23:07.299Z,81.41
2022-12-18T16:27:08.836Z,81.99
2022-12-18T16:31:10.491Z,81.43
2022-12-18T16:35:13.080Z,82.06
2022-12-18T16:39:16.009Z,82.91
2022-12-18T16:43:17.494Z,81.80
2022-12-18T16:47:19.689Z,81.95
2022-12-18T16:51:21.203Z,82.11
2022-12-18T16:55:24.036Z,82.90
2022-12-18T16:59:25.645Z,82.48
2022-12-18T17:03:27.443Z,82.21
2022-12-18T17:07:29.084Z,82.19
2022-12-18T17:11:33.663Z,82.49
2022-12-18T17:15:35.408Z,83.23
2022-12-18T17:19:36.971Z,82.70
2022-12-18T17:23:38.739Z,82.92
2022-12-18T17:27:41.804Z,82.29
2022-12-18T17:31:43.401Z,82.85
2022-12-18T17:35:45.186Z,82.61
2022-12-18T17:39:49.873Z,82.10
2022-12-18T17:43:53.786Z,82.17
2022-12-18T17:47:59.696Z,81.77
2022-12-18T17:52:01.550Z,82.18
2022-12-18T17:56:03.252Z,82.34
2022-12-18T18:00:07.899Z,81.92
2022-12-18T18:04:09.831Z,81.47
2022-12-18T18:08:11.478Z,82.33
2022-12-18T18:12:13.214Z,82.42
2022-12-18T18:16:16.207Z,82.26
2022-12-18T18:20:22.493Z,82.28
2022-12-18T18:24:24.412Z,81.24
2022-12-18T18:28:25.970Z,81.72
2022-12-18T18:32:28.899Z,81.35
2022-12-18T18:36:30.833Z,80.44
2022-12-18T18:40:32.482Z,80.69
2022-12-18T18:44:34.014Z,80.58
2022-12-18T18:48:37.476Z,80.17
2022-12-18T18:52:39.949Z,80.37
2022-12-18T18:57:18.820Z,79.85
2022-12-18T19:01:06.983Z,79.19
2022-12-18T19:05:10.035Z,79.81
2022-12-18T19:09:11.598Z,79.42
2022-12-18T19:13:13.854Z,78.72
2022-12-18T19:17:15.456Z,78.82
2022-12-18T19:21:18.768Z,78.21
2022-12-18T19:25:20.368Z,78.24
2022-12-18T19:29:21.920Z,78.56
2022-12-18T19:37:46.443Z,77.98
2022-12-18T19:41:48.279Z,77.85
2022-12-18T19:45:54.615Z,77.88
2022-12-18T19:49:56.238Z,77.13
2022-12-18T19:54:01.834Z,76.90
2022-12-18T19:58:03.561Z,76.53
2022-12-18T20:02:05.161Z,77.17
2022-12-18T20:06:11.963Z,76.95
2022-12-18T20:10:15.110Z,76.47
2022-12-18T20:14:23.485Z,76.51
2022-12-18T20:18:25.313Z,76.40
2022-12-18T20:22:27.047Z,76.12
2022-12-18T20:26:30.281Z,75.79
2022-12-18T20:30:31.850Z,75.54
2022-12-18T20:34:33.352Z,75.53
2022-12-18T20:38:35.696Z,75.27
2022-12-18T20:42:38.952Z,75.11
2022-12-18T20:46:40.461Z,75.20
2022-12-18T20:50:42.008Z,74.98
2022-12-18T20:54:43.514Z,74.87
2022-12-18T20:58:46.713Z,74.00
2022-12-18T21:02:48.333Z,73.64
2022-12-18T21:06:55.568Z,74.45
2022-12-18T21:11:17.526Z,73.74
2022-12-18T21:15:26.813Z,73.49
2022-12-18T21:19:30.069Z,72.76
2022-12-18T21:23:32.017Z,72.54
2022-12-18T21:27:33.837Z,71.88
2022-12-18T21:31:38.198Z,71.40
2022-12-18T21:35:39.789Z,70.67
2022-12-18T21:39:41.570Z,71.22
2022-12-18T21:43:43.264Z,71.61
2022-12-18T21:47:46.366Z,72.13
2022-12-18T21:51:49.351Z,71.81
2022-12-18T21:55:58.055Z,72.39
2022-12-18T21:59:59.685Z,72.20
2022-12-18T22:04:02.926Z,71.78
2022-12-18T22:08:05.063Z,72.31
2022-12-18T22:12:07.599Z,72.05
2022-12-18T22:16:09.330Z,73.24
2022-12-18T22:20:12.907Z,73.33
2022-12-18T22:24:17.062Z,73.06
2022-12-18T22:28:18.658Z,73.76
2022-12-18T22:32:30.575Z,74.02
2022-12-18T22:36:37.753Z,74.23
2022-12-18T22:40:39.491Z,73.90
2022-12-18T22:44:41.187Z,74.28
2022-12-18T22:48:43.366Z,74.08
2022-12-18T22:52:46.414Z,74.50
2022-12-18T22:56:48.377Z,74.63
2022-12-18T23:00:49.957Z,74.49
2022-12-18T23:04:51.612Z,74.33
2022-12-18T23:08:56.209Z,74.33
2022-12-18T23:12:57.865Z,74.60
2022-12-18T23:16:59.475Z,74.63
2022-12-18T23:21:05.418Z,75.01
2022-12-18T23:25:10.360Z,75.83
2022-12-18T23:29:11.857Z,75.43
2022-12-18T23:33:13.328Z,76.06
2022-12-18T23:37:29.971Z,75.78
2022-12-18T23:41:37.899Z,76.20
2022-12-18T23:45:39.395Z,75.91
2022-12-18T23:49:40.889Z,76.11
2022-12-18T23:53:42.965Z,76.50
2022-12-18T23:57:45.819Z,76.67
